ZAA weather

CLOSED Alice Arm/Silver City Seaplane Base
British Columbia, Canada

Public forecast

Using degrees Celsius for public forecast. Weather courtesy of forecast.io.

METAR (pilot weather report)

Report is more than 6 hours old.

Closest report is Stewart Airport, 32.8 nm (60.8 km) NNW. Retrieved 2019/09/18 01:00 UTC (7 hours ago):

CZST 180100Z 21003KT 170V240 15SM SCT065 17/09 A2969 RMK CU3 LAST STFD OBS/NEXT 181300Z/ SLP056 DENSITY ALT 600FT

TAF (pilot weather forecast)

Closest forecast is Northwest Regional Airport Terrace-Kitimat, 67.6 nm (125.2 km) SSE. Retrieved 2019/09/18 07:45 UTC (20 minutes ago):

TAF TAF CYXT 180641Z 1807/1819 36006KT P6SM FEW100 PROB30 1809/1816 1/2SM FG VV002 RMK NXT FCST BY 181300Z